Latest Coastal Weather Observations for Smithton

IDV60701

Issued at 7:41 am EDT Wednesday 1 April 2015 (issued every 10 minutes, with the page automatically refreshed every 10 minutes)

About coastal observations | Map of coastal stations | Coastal observations for VIC | Marine services | Other Formats
Station Details ID: 091292 Name: SMITHTON AERODROME Lat: -40.83 Lon: 145.08 Height: 7.5 m
Data from the previous 72 hours. | See also: Recent months at Smithton
Date/Time
EDT
Temp

°C
Wind Pressure Rain
since 9am
mm
Weather Cloud Vis
km
Sea
Height
m
Swell
Dir
 
Speed
knots
Gust
knots
hPa Trend Height
m
Period
s
Dir
01/07:30am 14.7 ENE 10 13 1017.2 - 0.0 - - - - - - -
01/07:00am 14.5 E 10 13 1017.6 - 0.0 - - - - - - -
01/06:30am 14.2 E 10 13 1017.7 - 0.0 - - - - - - -
01/06:00am 14.0 E 10 13 1018.0 - 0.0 - - - - - - -
01/05:30am 13.9 E 9 12 1018.4 - 0.0 - - - - - - -
01/05:00am 13.3 E 8 9 1018.6 - 0.0 - - - - - - -
01/04:30am 12.9 E 6 7 1019.0 - 0.0 - - - - - - -
01/04:00am 12.2 E 6 7 1019.6 - 0.0 - - - - - - -
01/03:30am 11.2 E 2 4 1020.1 - 0.0 - - - - - - -
01/03:00am 9.4 WSW 6 7 1020.5 - 0.0 - - - - - - -
01/02:30am 8.9 WSW 5 5 1020.9 - 0.0 - - - - - - -
01/02:00am 8.6 WSW 4 4 1021.2 - 0.0 - - - - - - -
01/01:30am 7.7 CALM 0 2 1021.6 - 0.0 - - - - - - -
01/01:00am 7.7 CALM 0 0 1021.8 - 0.0 - - - - - - -
01/12:30am 8.4 WSW 3 5 1021.9 - 0.0 - - - - - - -
01/12:00am 8.6 WSW 4 5 1022.1 - 0.0 - - - - - - -
 
Date/Time
EDT
Temp

°C
Wind Pressure Rain
since 9am
mm
Weather Cloud Vis
km
Sea
Height
m
Swell
Dir
 
Speed
knots
Gust
knots
hPa Trend Height
m
Period
s
Dir
31/11:30pm 8.8 WSW 1 4 1022.7 - 0.0 - - - - - - -
31/11:00pm 10.0 WSW 2 3 1022.7 - 0.0 - - - - - - -
31/10:30pm 10.8 WSW 4 5 1022.9 - 0.0 - - - - - - -
31/10:00pm 11.6 CALM 0 5 1023.0 - 0.0 - - - - - - -
31/09:30pm 12.7 CALM 0 0 1023.4 - 0.0 - - - - - - -
31/09:00pm 14.4 CALM 0 0 1023.4 - 0.0 - - - - - - -
31/08:30pm 14.7 WSW 4 5 1023.4 - 0.0 - - - - - - -
31/08:00pm 15.1 WSW 6 7 1023.3 - 0.0 - - - - - - -
31/07:30pm 15.3 WSW 5 6 1023.0 - 0.0 - - - - - - -
31/07:00pm 15.5 NW 5 6 1023.0 - 0.0 - - - - - - -
31/06:30pm 15.8 WNW 6 8 1022.9 - 0.0 - - - - - - -
31/06:00pm 16.6 NW 6 8 1022.9 - 0.0 - - - - - - -
31/05:30pm 17.5 WNW 7 10 1022.9 - 0.0 - - - - - - -
31/05:00pm 17.1 WNW 8 10 1023.0 - 0.0 - - - - - - -
31/04:30pm 17.0 NNW 8 10 1023.1 - 0.0 - - - - - - -
31/04:00pm 16.9 NW 10 12 1023.6 - 0.0 - - - - - - -
31/03:30pm 17.1 NW 10 12 1023.8 - 0.0 - - - - - - -
31/03:00pm 17.1 NW 7 10 1024.1 - 0.0 - - - - - - -
31/02:30pm 16.9 NW 7 9 1024.3 - 0.0 - - - - - - -
31/02:00pm 16.8 WNW 7 9 1024.7 - 0.0 - - - - - - -
31/01:30pm 16.8 WNW 9 11 1025.0 - 0.0 - - - - - - -
31/01:00pm 16.4 WNW 8 10 1025.4 - 0.0 - - - - - - -
31/12:30pm 16.6 NW 7 9 1025.5 - 0.0 - - - - - - -
31/12:00pm 16.5 WSW 7 10 1025.8 - 0.0 - - - - - - -
31/11:30am 16.6 WSW 5 8 1025.9 - 0.0 - - - - - - -
31/11:00am 16.1 WSW 6 9 1026.1 - 0.0 - - - - - - -
31/10:30am 15.9 WSW 5 8 1026.0 - 0.0 - - - - - - -
31/10:00am 15.8 WSW 4 6 1026.0 - 0.0 - - - - - - -
31/09:30am 15.5 SW 6 7 1026.1 - 0.0 - - - - - - -
31/09:00am 14.7 SW 4 6 1026.0 - 0.2 - - - - - - -
31/08:30am 13.6 CALM 0 0 1025.9 - 0.2 - - - - - - -
31/08:00am 13.0 CALM 0 0 1025.5 - 0.2 - - - - - - -
31/07:30am 12.6 CALM 0 3 1025.6 - 0.2 - - - - - - -
31/07:00am 12.7 SW 3 4 1025.2 - 0.2 - - - - - - -
31/06:30am 13.0 CALM 0 4 1025.0 - 0.2 - - - - - - -
31/06:00am 13.3 CALM 0 0 1024.7 - 0.2 - - - - - - -
31/05:30am 13.3 CALM 0 0 1024.5 - 0.2 - - - - - - -
31/05:00am 13.3 SW 2 4 1024.5 - 0.2 - - - - - - -
31/04:30am 13.3 SW 2 5 1024.5 - 0.2 - - - - - - -
31/04:00am 13.3 SW 1 5 1024.5 - 0.2 - - - - - - -
31/03:30am 13.2 CALM 0 0 1024.8 - 0.2 - - - - - - -
31/03:00am 13.2 CALM 0 0 1024.8 - 0.2 - - - - - - -
31/02:30am 13.1 CALM 0 0 1024.8 - 0.2 - - - - - - -
31/02:00am 13.6 CALM 0 0 1025.0 - 0.2 - - - - - - -
31/01:30am 13.8 CALM 0 0 1024.9 - 0.2 - - - - - - -
31/01:00am 13.9 CALM 0 0 1024.9 - 0.2 - - - - - - -
31/12:30am 14.0 SW 1 6 1025.0 - 0.2 - - - - - - -
31/12:00am 13.8 CALM 0 0 1025.1 - 0.2 - - - - - - -
 
Date/Time
EDT
Temp

°C
Wind Pressure Rain
since 9am
mm
Weather Cloud Vis
km
Sea
Height
m
Swell
Dir
 
Speed
knots
Gust
knots
hPa Trend Height
m
Period
s
Dir
30/11:30pm 13.9 SW 3 4 1025.3 - 0.2 - - - - - - -
30/11:00pm 14.1 SW 1 4 1025.3 - 0.2 - - - - - - -
30/10:30pm 14.2 SW 4 5 1025.2 - 0.2 - - - - - - -
30/10:00pm 14.4 SW 4 5 1025.3 - 0.2 - - - - - - -
30/09:30pm 14.5 SW 6 6 1025.3 - 0.2 - - - - - - -
30/09:00pm 14.9 SW 5 7 1025.1 - 0.2 - - - - - - -
30/08:30pm 14.8 SW 5 6 1024.9 - 0.2 - - - - - - -
30/08:00pm 15.0 SW 8 9 1024.5 - 0.2 - - - - - - -
30/07:30pm 15.2 WSW 9 11 1024.1 - 0.2 - - - - - - -
30/07:00pm 15.5 SW 7 10 1024.0 - 0.2 - - - - - - -
30/06:30pm 15.9 WSW 9 12 1023.5 - 0.2 - - - - - - -
30/06:00pm 16.6 WSW 10 14 1023.2 - 0.2 - - - - - - -
30/05:30pm 16.6 WSW 13 17 1023.0 - 0.2 - - - - - - -
30/05:00pm 17.0 W 12 16 1022.9 - 0.2 - - - - - - -
30/04:30pm 17.2 WSW 15 20 1022.9 - 0.2 - - - - - - -
30/04:00pm 17.2 WSW 14 17 1022.8 - 0.2 - - - - - - -
30/03:30pm 17.6 W 14 19 1022.8 - 0.2 - - - - - - -
30/03:00pm 19.0 W 13 18 1022.6 - 0.2 - - - - - - -
30/02:30pm 18.4 WSW 15 20 1022.6 - 0.2 - - - - - - -
30/02:00pm 18.6 WSW 12 16 1022.7 - 0.0 - - - - - - -
30/01:30pm 16.2 W 14 19 1023.0 - 0.0 - - - - - - -
30/01:00pm 18.1 W 13 19 1022.7 - 0.0 - - - - - - -
30/12:30pm 18.5 SW 13 16 1022.8 - 0.0 - - - - - - -
30/12:00pm 16.8 W 13 18 1022.9 - 0.0 - - - - - - -
30/11:30am 18.0 W 12 16 1022.9 - 0.0 - - - - - - -
30/11:00am 17.4 W 13 17 1022.8 - 0.0 - - - - - - -
30/10:30am 17.1 W 12 16 1022.7 - 0.0 - - - - - - -
30/10:00am 16.4 W 11 14 1022.4 - 0.0 - - - - - - -
30/09:30am 15.4 W 14 21 1022.1 - 0.0 - - - - - - -
30/09:00am 16.3 WNW 8 11 1021.7 - 0.2 - - - - - - -
30/08:30am 15.8 WNW 8 11 1021.4 - 0.2 - - - - - - -
30/08:00am 15.5 WNW 8 9 1021.4 - 0.2 - - - - - - -
30/07:30am 15.4 NW 7 9 1021.1 - 0.2 - - - - - - -
30/07:00am 15.3 WNW 8 10 1020.8 - 0.2 - - - - - - -
30/06:30am 15.4 WNW 8 10 1020.6 - 0.2 - - - - - - -
30/06:00am 15.4 WNW 7 9 1020.4 - 0.2 - - - - - - -
30/05:30am 15.6 WNW 7 9 1020.3 - 0.2 - - - - - - -
30/05:00am 15.7 WNW 8 10 1020.3 - 0.2 - - - - - - -
30/04:30am 15.7 NW 6 8 1020.4 - 0.2 - - - - - - -
30/04:00am 15.5 WNW 7 9 1020.4 - 0.2 - - - - - - -
30/03:30am 15.5 WNW 9 10 1020.6 - 0.2 - - - - - - -
30/03:00am 15.5 NW 8 11 1020.6 - 0.2 - - - - - - -
30/02:30am 15.3 NW 7 9 1020.8 - 0.2 - - - - - - -
30/02:00am 15.1 WNW 7 9 1020.9 - 0.2 - - - - - - -
30/01:30am 15.1 WNW 8 11 1020.9 - 0.2 - - - - - - -
30/01:00am 15.6 WNW 9 12 1021.0 - 0.2 - - - - - - -
30/12:30am 15.7 WNW 9 12 1021.0 - 0.2 - - - - - - -
30/12:00am 15.6 WNW 11 15 1021.0 - 0.2 - - - - - - -
 
Date/Time
EDT
Temp

°C
Wind Pressure Rain
since 9am
mm
Weather Cloud Vis
km
Sea
Height
m
Swell
Dir
 
Speed
knots
Gust
knots
hPa Trend Height
m
Period
s
Dir
29/11:30pm 15.5 NW 10 12 1021.2 - 0.2 - - - - - - -
29/11:00pm 15.0 WNW 7 8 1021.3 - 0.2 - - - - - - -
29/10:30pm 14.6 WNW 7 8 1021.1 - 0.2 - - - - - - -
29/10:00pm 14.4 WNW 6 7 1021.1 - 0.2 - - - - - - -
29/09:30pm 14.2 WNW 6 7 1021.0 - 0.2 - - - - - - -
29/09:00pm 14.5 WNW 8 10 1020.7 - 0.2 - - - - - - -
29/08:30pm 14.9 WNW 8 12 1020.4 - 0.2 - - - - - - -
29/08:00pm 15.4 WNW 9 13 1020.3 - 0.2 - - - - - - -
29/07:30pm 15.9 WNW 11 14 1019.9 - 0.2 - - - - - - -
29/07:00pm 16.2 W 11 14 1019.7 - 0.2 - - - - - - -
29/06:30pm 16.5 W 13 18 1019.5 - 0.2 - - - - - - -
29/06:00pm 16.8 W 12 16 1019.4 - 0.2 - - - - - - -
29/05:30pm 17.0 W 14 18 1019.2 - 0.2 - - - - - - -
29/05:00pm 17.4 W 14 18 1019.1 - 0.2 - - - - - - -
29/04:30pm 17.6 W 14 19 1019.0 - 0.2 - - - - - - -
29/04:00pm 17.2 W 18 23 1019.0 - 0.2 - - - - - - -
29/03:30pm 17.4 W 16 21 1019.2 - 0.2 - - - - - - -
29/03:00pm 17.5 W 16 22 1019.1 - 0.2 - - - - - - -
29/02:30pm 17.6 W 17 22 1019.1 - 0.2 - - - - - - -
29/02:00pm 17.9 WNW 14 19 1019.2 - 0.2 - - - - - - -
29/01:30pm 18.1 W 17 21 1019.2 - 0.2 - - - - - - -
29/01:00pm 18.7 W 15 20 1019.2 - 0.2 - - - - - - -
29/12:30pm 17.4 W 16 20 1019.5 - 0.2 - - - - - - -
29/12:00pm 17.0 W 16 21 1019.5 - 0.2 - - - - - - -
29/11:30am 17.6 WNW 14 22 1019.6 - 0.2 - - - - - - -
29/11:00am 17.7 W 16 24 1019.5 - 0.2 - - - - - - -
29/10:30am 15.8 W 15 21 1019.6 - 0.2 - - - - - - -
29/10:00am 15.6 W 10 13 1019.5 - 0.2 - - - - - - -
29/09:30am 14.6 WNW 9 12 1019.4 - 0.0 - - - - - - -
29/09:00am 13.9 W 12 17 1019.5 - 0.2 - - - - - - -
29/08:52am 14.2 W 15 17 1019.4 - 0.2 - - - - - - -
29/08:30am 14.4 NW 6 7 1019.2 - 0.2 - - - - - - -
29/08:00am 13.9 NW 6 7 1019.0 - 0.2 - - - - - - -

Other Formats:

Comma delimited format used in spreadsheet applications
http://www.bom.gov.au/fwo/IDV60701/IDV60701.94953.axf

JavaScript Object Notation format (JSON) in row-major order
http://www.bom.gov.au/fwo/IDV60701/IDV60701.94953.json